This is the latest recevied weather packets stored in our database for station/object AD6NH. If no packets are shown the sender has not sent any weather packets the latest 10 day(s).
| Time | Temp. | Humidity | Pressure | Rain* | Wind** | Luminosity | Snow |
|---|---|---|---|---|---|---|---|
| 1777784222 | 15.56° C | 84% | 1013.6 hPa | 0 mm | - | - | - |
| 1777783622 | 15.56° C | 84% | 1013.5 hPa | 0 mm | - | - | - |
| 1777783022 | 15.56° C | 83% | 1013.3 hPa | 0 mm | - | - | - |
| 1777782422 | 15.56° C | 83% | 1013.1 hPa | 0 mm | - | - | - |
| 1777781823 | 15.56° C | 82% | 1013.1 hPa | 0 mm | - | - | - |
| 1777781222 | 15.56° C | 81% | 1012.8 hPa | 0 mm | - | - | - |
| 1777780622 | 16.11° C | 80% | 1012.7 hPa | 0 mm | - | - | - |
| 1777780022 | 16.11° C | 80% | 1012.7 hPa | 0 mm | - | - | - |
| 1777779422 | 16.11° C | 80% | 1012.4 hPa | 0 mm | - | - | - |
| 1777778822 | 16.11° C | 79% | 1012.2 hPa | 0 mm | - | - | - |
| 1777778222 | 16.11° C | 79% | 1012.2 hPa | 0 mm | - | - | - |
| 1777777622 | 16.11° C | 80% | 1012.1 hPa | 0 mm | - | - | - |
| 1777777022 | 16.67° C | 78% | 1011.8 hPa | 0 mm | - | - | - |
| 1777776422 | 16.67° C | 77% | 1011.7 hPa | 0 mm | - | - | - |
| 1777775822 | 17.22° C | 74% | 1011.4 hPa | 0 mm | - | - | - |
| 1777775222 | 17.78° C | 73% | 1011.4 hPa | 0 mm | - | - | - |
| 1777774622 | 17.78° C | 72% | 1011.3 hPa | 0 mm | - | - | - |
| 1777774022 | 18.89° C | 68% | 1011.2 hPa | 0 mm | - | - | - |
| 1777773422 | 19.44° C | 66% | 1011.1 hPa | 0 mm | - | - | - |
| 1777772822 | 19.44° C | 66% | 1011 hPa | 0 mm | - | - | - |
| 1777772222 | 20° C | 65% | 1011 hPa | 0 mm | - | - | - |
| 1777771623 | 20.56° C | 63% | 1011 hPa | 0 mm | - | - | - |
| 1777771023 | 20.56° C | 62% | 1011.1 hPa | 0 mm | - | - | - |
| 1777770422 | 20.56° C | 62% | 1011 hPa | 0 mm | - | - | - |
| 1777769822 | 21.67° C | 60% | 1011 hPa | 0 mm | - | - | - |
* Rain latest hour (hover to see other rain measurements)
** Current wind speed in m/s (hover to see current wind gust speed)